sensor_id;sensor_type;location;lat;lon;timestamp;pressure;altitude;pressure_sealevel;temperature;humidity
63190;BME280;49286;44.460;26.114;2022-09-09T00:04:09;100614.13;;;19.66;71.05
63190;BME280;49286;44.460;26.114;2022-09-09T00:06:48;100598.44;;;19.58;71.06
63190;BME280;49286;44.460;26.114;2022-09-09T00:09:23;100481.44;;;18.77;71.52
63190;BME280;49286;44.460;26.114;2022-09-09T00:15:12;100624.59;;;19.46;73.10
63190;BME280;49286;44.460;26.114;2022-09-09T00:17:49;100612.34;;;19.40;72.99
63190;BME280;49286;44.460;26.114;2022-09-09T00:22:59;100609.84;;;19.35;74.15
63190;BME280;49286;44.460;26.114;2022-09-09T00:28:27;100489.09;;;18.58;73.92
63190;BME280;49286;44.460;26.114;2022-09-09T00:30:56;100483.81;;;18.56;73.79
63190;BME280;49286;44.460;26.114;2022-09-09T00:33:26;100627.94;;;19.24;74.52
63190;BME280;49286;44.460;26.114;2022-09-09T00:35:57;100484.28;;;18.43;75.25
63190;BME280;49286;44.460;26.114;2022-09-09T00:46:27;100620.91;;;19.23;75.90
63190;BME280;49286;44.460;26.114;2022-09-09T00:51:30;100615.22;;;19.06;76.78
63190;BME280;49286;44.460;26.114;2022-09-09T00:54:17;100620.81;;;18.98;79.87
63190;BME280;49286;44.460;26.114;2022-09-09T00:59:52;100552.53;;;18.41;81.85
63190;BME280;49286;44.460;26.114;2022-09-09T01:02:50;100613.72;;;18.69;82.84
63190;BME280;49286;44.460;26.114;2022-09-09T01:05:27;100613.50;;;18.75;82.30
63190;BME280;49286;44.460;26.114;2022-09-09T01:07:55;100603.91;;;18.71;82.50
63190;BME280;49286;44.460;26.114;2022-09-09T01:10:50;100592.56;;;18.64;83.20
63190;BME280;49286;44.460;26.114;2022-09-09T01:13:25;100598.59;;;18.40;83.69
63190;BME280;49286;44.460;26.114;2022-09-09T01:15:53;100609.47;;;18.32;84.78
63190;BME280;49286;44.460;26.114;2022-09-09T01:18:23;100591.44;;;18.43;84.23
63190;BME280;49286;44.460;26.114;2022-09-09T01:21:05;100617.31;;;18.37;85.49
63190;BME280;49286;44.460;26.114;2022-09-09T01:28:50;100478.06;;;17.19;87.71
63190;BME280;49286;44.460;26.114;2022-09-09T01:31:21;100592.53;;;18.05;87.12
63190;BME280;49286;44.460;26.114;2022-09-09T01:33:48;100617.69;;;18.23;87.92
63190;BME280;49286;44.460;26.114;2022-09-09T01:39:00;100618.53;;;18.25;86.80
63190;BME280;49286;44.460;26.114;2022-09-09T01:41:26;100484.88;;;17.29;87.45
63190;BME280;49286;44.460;26.114;2022-09-09T01:43:53;100602.03;;;17.79;89.70
63190;BME280;49286;44.460;26.114;2022-09-09T01:46:22;100603.22;;;17.67;90.21
63190;BME280;49286;44.460;26.114;2022-09-09T01:48:49;100597.38;;;17.55;91.44
63190;BME280;49286;44.460;26.114;2022-09-09T01:51:15;100587.00;;;17.45;90.68
63190;BME280;49286;44.460;26.114;2022-09-09T01:53:41;100426.41;;;16.65;90.86
63190;BME280;49286;44.460;26.114;2022-09-09T02:02:19;100616.13;;;17.84;90.63
63190;BME280;49286;44.460;26.114;2022-09-09T02:06:56;100500.41;;;16.71;91.26
63190;BME280;49286;44.460;26.114;2022-09-09T02:09:23;100617.75;;;17.54;90.83
63190;BME280;49286;44.460;26.114;2022-09-09T02:11:54;100622.41;;;17.44;91.45
63190;BME280;49286;44.460;26.114;2022-09-09T02:14:25;100553.03;;;16.90;92.05
63190;BME280;49286;44.460;26.114;2022-09-09T02:17:14;100477.28;;;16.40;92.91
63190;BME280;49286;44.460;26.114;2022-09-09T02:19:48;100479.09;;;16.40;93.17
63190;BME280;49286;44.460;26.114;2022-09-09T02:22:17;100621.09;;;17.25;93.39
63190;BME280;49286;44.460;26.114;2022-09-09T02:24:44;100619.94;;;17.37;92.30
63190;BME280;49286;44.460;26.114;2022-09-09T02:27:11;100475.16;;;16.56;91.86
63190;BME280;49286;44.460;26.114;2022-09-09T02:29:42;100580.56;;;17.20;91.64
63190;BME280;49286;44.460;26.114;2022-09-09T02:32:17;100603.25;;;17.33;91.78
63190;BME280;49286;44.460;26.114;2022-09-09T02:34:50;100607.19;;;17.17;92.53
63190;BME280;49286;44.460;26.114;2022-09-09T02:37:19;100605.31;;;17.20;92.05
63190;BME280;49286;44.460;26.114;2022-09-09T02:39:46;100552.88;;;16.96;93.81
63190;BME280;49286;44.460;26.114;2022-09-09T02:42:12;100587.13;;;17.05;95.71
63190;BME280;49286;44.460;26.114;2022-09-09T02:44:40;100604.63;;;17.12;96.13
63190;BME280;49286;44.460;26.114;2022-09-09T02:47:26;100610.81;;;17.11;95.71
63190;BME280;49286;44.460;26.114;2022-09-09T02:53:18;100614.28;;;17.16;93.47
63190;BME280;49286;44.460;26.114;2022-09-09T02:55:48;100592.31;;;16.69;94.52
63190;BME280;49286;44.460;26.114;2022-09-09T02:58:18;100605.59;;;17.08;93.58
63190;BME280;49286;44.460;26.114;2022-09-09T03:00:49;100612.03;;;16.98;94.12
63190;BME280;49286;44.460;26.114;2022-09-09T03:03:15;100588.13;;;16.60;95.29
63190;BME280;49286;44.460;26.114;2022-09-09T03:05:42;100614.59;;;17.02;94.57
63190;BME280;49286;44.460;26.114;2022-09-09T03:08:08;100607.22;;;17.14;94.18
63190;BME280;49286;44.460;26.114;2022-09-09T03:10:35;100608.97;;;17.16;94.15
63190;BME280;49286;44.460;26.114;2022-09-09T03:13:00;100610.50;;;17.25;93.55
63190;BME280;49286;44.460;26.114;2022-09-09T03:15:26;100541.88;;;16.74;96.36
63190;BME280;49286;44.460;26.114;2022-09-09T03:17:55;100449.63;;;16.15;96.85
63190;BME280;49286;44.460;26.114;2022-09-09T03:20:23;100488.84;;;16.36;96.26
63190;BME280;49286;44.460;26.114;2022-09-09T03:22:48;100478.44;;;16.29;95.89
63190;BME280;49286;44.460;26.114;2022-09-09T03:25:13;100589.28;;;16.87;94.12
63190;BME280;49286;44.460;26.114;2022-09-09T03:27:39;100626.53;;;17.20;93.90
63190;BME280;49286;44.460;26.114;2022-09-09T03:30:05;100620.13;;;16.92;94.93
63190;BME280;49286;44.460;26.114;2022-09-09T03:32:31;100512.22;;;16.17;95.84
63190;BME280;49286;44.460;26.114;2022-09-09T03:34:57;100619.69;;;17.12;95.17
63190;BME280;49286;44.460;26.114;2022-09-09T03:37:22;100597.03;;;16.97;95.64
63190;BME280;49286;44.460;26.114;2022-09-09T03:39:48;100624.16;;;17.09;95.18
63190;BME280;49286;44.460;26.114;2022-09-09T03:42:14;100502.47;;;16.19;95.02
63190;BME280;49286;44.460;26.114;2022-09-09T03:44:44;100480.13;;;15.92;97.14
63190;BME280;49286;44.460;26.114;2022-09-09T03:47:13;100625.69;;;16.78;97.81
63190;BME280;49286;44.460;26.114;2022-09-09T03:49:45;100480.22;;;15.88;98.09
63190;BME280;49286;44.460;26.114;2022-09-09T03:52:11;100482.53;;;16.03;97.95
63190;BME280;49286;44.460;26.114;2022-09-09T03:54:37;100494.41;;;16.25;97.35
63190;BME280;49286;44.460;26.114;2022-09-09T03:57:03;100625.25;;;16.99;98.80
63190;BME280;49286;44.460;26.114;2022-09-09T03:59:30;100614.50;;;17.05;97.41
63190;BME280;49286;44.460;26.114;2022-09-09T04:01:55;100531.66;;;16.58;98.15
63190;BME280;49286;44.460;26.114;2022-09-09T04:04:22;100571.75;;;16.83;97.17
63190;BME280;49286;44.460;26.114;2022-09-09T04:06:48;100576.66;;;16.99;95.65
63190;BME280;49286;44.460;26.114;2022-09-09T04:09:14;100453.72;;;16.30;96.37
63190;BME280;49286;44.460;26.114;2022-09-09T04:11:40;100582.78;;;17.02;96.65
63190;BME280;49286;44.460;26.114;2022-09-09T04:14:05;100597.53;;;17.14;95.97
63190;BME280;49286;44.460;26.114;2022-09-09T04:16:33;100600.91;;;17.21;94.91
63190;BME280;49286;44.460;26.114;2022-09-09T04:18:59;100586.91;;;17.14;94.07
63190;BME280;49286;44.460;26.114;2022-09-09T04:21:25;100564.09;;;17.07;94.12
63190;BME280;49286;44.460;26.114;2022-09-09T04:23:51;100464.78;;;16.47;93.41
63190;BME280;49286;44.460;26.114;2022-09-09T04:26:17;100617.41;;;17.32;91.27
63190;BME280;49286;44.460;26.114;2022-09-09T04:28:43;100613.69;;;17.02;91.89
63190;BME280;49286;44.460;26.114;2022-09-09T04:31:20;100491.41;;;16.41;92.16
63190;BME280;49286;44.460;26.114;2022-09-09T04:33:48;100360.25;;;15.45;91.72
63190;BME280;49286;44.460;26.114;2022-09-09T04:36:14;100482.31;;;16.14;92.88
63190;BME280;49286;44.460;26.114;2022-09-09T04:38:40;100602.59;;;16.86;93.50
63190;BME280;49286;44.460;26.114;2022-09-09T04:41:06;100431.09;;;15.74;94.61
63190;BME280;49286;44.460;26.114;2022-09-09T04:43:32;100613.91;;;16.93;94.15
63190;BME280;49286;44.460;26.114;2022-09-09T04:45:58;100567.59;;;16.70;92.78
63190;BME280;49286;44.460;26.114;2022-09-09T04:48:26;100465.41;;;16.19;91.59
63190;BME280;49286;44.460;26.114;2022-09-09T04:50:59;100624.94;;;17.13;91.94
63190;BME280;49286;44.460;26.114;2022-09-09T04:53:25;100358.97;;;15.65;91.46
63190;BME280;49286;44.460;26.114;2022-09-09T04:56:08;100476.22;;;16.49;91.07
63190;BME280;49286;44.460;26.114;2022-09-09T04:58:36;100481.41;;;16.54;90.44
63190;BME280;49286;44.460;26.114;2022-09-09T05:01:12;100622.56;;;17.38;91.02
63190;BME280;49286;44.460;26.114;2022-09-09T05:03:37;100618.53;;;17.58;89.85
63190;BME280;49286;44.460;26.114;2022-09-09T05:06:11;100480.41;;;17.31;88.13
63190;BME280;49286;44.460;26.114;2022-09-09T05:08:44;100596.44;;;18.84;84.41
63190;BME280;49286;44.460;26.114;2022-09-09T05:11:19;100459.00;;;18.86;79.77
63190;BME280;49286;44.460;26.114;2022-09-09T05:13:45;100624.56;;;20.48;76.92
63190;BME280;49286;44.460;26.114;2022-09-09T05:16:11;100534.16;;;20.41;74.92
63190;BME280;49286;44.460;26.114;2022-09-09T05:18:40;100611.34;;;21.36;73.62
63190;BME280;49286;44.460;26.114;2022-09-09T05:21:07;100459.19;;;20.73;73.10
63190;BME280;49286;44.460;26.114;2022-09-09T05:23:33;100570.22;;;21.82;70.03
63190;BME280;49286;44.460;26.114;2022-09-09T05:25:59;100600.63;;;22.19;65.94
63190;BME280;49286;44.460;26.114;2022-09-09T05:28:26;100582.63;;;22.43;65.15
63190;BME280;49286;44.460;26.114;2022-09-09T05:30:59;100583.00;;;22.73;62.43
63190;BME280;49286;44.460;26.114;2022-09-09T05:33:26;100600.06;;;23.09;61.91
63190;BME280;49286;44.460;26.114;2022-09-09T05:35:59;100584.47;;;22.98;61.84
63190;BME280;49286;44.460;26.114;2022-09-09T05:38:32;100619.44;;;23.31;60.24
63190;BME280;49286;44.460;26.114;2022-09-09T05:40:58;100504.69;;;22.70;59.50
63190;BME280;49286;44.460;26.114;2022-09-09T05:43:24;100560.94;;;23.24;59.02
63190;BME280;49286;44.460;26.114;2022-09-09T05:46:08;100501.41;;;23.18;57.95
63190;BME280;49286;44.460;26.114;2022-09-09T05:48:36;100577.41;;;23.86;56.56
63190;BME280;49286;44.460;26.114;2022-09-09T05:51:03;100600.97;;;23.96;57.33
63190;BME280;49286;44.460;26.114;2022-09-09T05:53:29;100561.09;;;23.90;56.40
63190;BME280;49286;44.460;26.114;2022-09-09T05:56:07;100513.59;;;23.59;57.78
63190;BME280;49286;44.460;26.114;2022-09-09T05:58:36;100581.44;;;23.94;56.60
63190;BME280;49286;44.460;26.114;2022-09-09T06:01:11;100546.38;;;23.82;56.08
63190;BME280;49286;44.460;26.114;2022-09-09T06:03:38;100558.88;;;23.98;54.69
63190;BME280;49286;44.460;26.114;2022-09-09T06:06:06;100466.66;;;23.52;54.93
63190;BME280;49286;44.460;26.114;2022-09-09T06:08:33;100454.03;;;23.36;54.28
63190;BME280;49286;44.460;26.114;2022-09-09T06:11:04;100561.44;;;23.84;55.38
63190;BME280;49286;44.460;26.114;2022-09-09T06:13:30;100559.75;;;23.64;54.72
63190;BME280;49286;44.460;26.114;2022-09-09T06:15:56;100447.31;;;22.75;54.21
63190;BME280;49286;44.460;26.114;2022-09-09T06:18:21;100477.19;;;22.85;56.36
63190;BME280;49286;44.460;26.114;2022-09-09T06:20:55;100458.38;;;22.50;55.93
63190;BME280;49286;44.460;26.114;2022-09-09T06:23:21;100436.09;;;22.50;55.98
63190;BME280;49286;44.460;26.114;2022-09-09T06:25:46;100552.56;;;23.12;57.99
63190;BME280;49286;44.460;26.114;2022-09-09T06:28:12;100565.91;;;23.31;59.46
63190;BME280;49286;44.460;26.114;2022-09-09T06:30:38;100470.63;;;22.73;61.95
63190;BME280;49286;44.460;26.114;2022-09-09T06:33:05;100602.53;;;23.48;63.72
63190;BME280;49286;44.460;26.114;2022-09-09T06:35:30;100486.69;;;22.54;60.74
63190;BME280;49286;44.460;26.114;2022-09-09T06:37:56;100604.75;;;22.66;55.94
63190;BME280;49286;44.460;26.114;2022-09-09T06:40:24;100601.69;;;22.36;55.93
63190;BME280;49286;44.460;26.114;2022-09-09T06:42:50;100608.44;;;22.44;56.29
63190;BME280;49286;44.460;26.114;2022-09-09T06:45:16;100512.97;;;21.88;58.16
63190;BME280;49286;44.460;26.114;2022-09-09T06:47:42;100602.94;;;22.66;61.00
63190;BME280;49286;44.460;26.114;2022-09-09T06:50:08;100471.06;;;21.69;59.22
63190;BME280;49286;44.460;26.114;2022-09-09T06:52:33;100594.03;;;22.66;57.25
63190;BME280;49286;44.460;26.114;2022-09-09T06:54:59;100519.53;;;22.00;56.49
63190;BME280;49286;44.460;26.114;2022-09-09T06:57:24;100569.69;;;22.72;61.11
63190;BME280;49286;44.460;26.114;2022-09-09T06:59:50;100598.59;;;22.83;59.48
63190;BME280;49286;44.460;26.114;2022-09-09T07:02:15;100506.44;;;22.52;59.97
63190;BME280;49286;44.460;26.114;2022-09-09T07:04:41;100593.09;;;22.86;59.47
63190;BME280;49286;44.460;26.114;2022-09-09T07:07:06;100617.84;;;22.91;56.07
63190;BME280;49286;44.460;26.114;2022-09-09T07:09:33;100490.75;;;22.06;57.84
63190;BME280;49286;44.460;26.114;2022-09-09T07:11:58;100577.63;;;22.92;58.82
63190;BME280;49286;44.460;26.114;2022-09-09T07:14:24;100597.63;;;23.22;60.40
63190;BME280;49286;44.460;26.114;2022-09-09T07:16:50;100459.84;;;22.20;59.80
63190;BME280;49286;44.460;26.114;2022-09-09T07:19:16;100586.56;;;23.10;59.51
63190;BME280;49286;44.460;26.114;2022-09-09T07:21:42;100505.94;;;22.80;55.18
63190;BME280;49286;44.460;26.114;2022-09-09T07:24:08;100595.53;;;23.46;55.39
63190;BME280;49286;44.460;26.114;2022-09-09T07:26:37;100453.22;;;22.82;57.56
63190;BME280;49286;44.460;26.114;2022-09-09T07:29:03;100549.53;;;23.37;56.85
63190;BME280;49286;44.460;26.114;2022-09-09T07:31:34;100601.25;;;23.74;57.58
63190;BME280;49286;44.460;26.114;2022-09-09T07:34:02;100606.03;;;23.85;57.75
63190;BME280;49286;44.460;26.114;2022-09-09T07:36:33;100487.63;;;23.44;58.16
63190;BME280;49286;44.460;26.114;2022-09-09T07:39:19;100602.69;;;24.15;57.83
63190;BME280;49286;44.460;26.114;2022-09-09T07:41:46;100583.88;;;23.99;56.44
63190;BME280;49286;44.460;26.114;2022-09-09T07:44:17;100487.06;;;23.37;58.06
63190;BME280;49286;44.460;26.114;2022-09-09T07:46:45;100585.63;;;23.83;54.46
63190;BME280;49286;44.460;26.114;2022-09-09T07:49:11;100553.47;;;23.83;59.96
63190;BME280;49286;44.460;26.114;2022-09-09T07:51:39;100481.50;;;23.57;59.76
63190;BME280;49286;44.460;26.114;2022-09-09T07:54:08;100592.22;;;24.10;58.68
63190;BME280;49286;44.460;26.114;2022-09-09T07:56:35;100605.50;;;24.29;59.19
63190;BME280;49286;44.460;26.114;2022-09-09T07:59:01;100593.91;;;24.29;60.10
63190;BME280;49286;44.460;26.114;2022-09-09T08:01:30;100516.13;;;23.79;58.37
63190;BME280;49286;44.460;26.114;2022-09-09T08:04:04;100495.38;;;23.48;54.06
63190;BME280;49286;44.460;26.114;2022-09-09T08:06:33;100493.97;;;23.58;59.00
63190;BME280;49286;44.460;26.114;2022-09-09T08:08:59;100605.97;;;24.37;58.98
63190;BME280;49286;44.460;26.114;2022-09-09T08:11:26;100524.47;;;23.38;51.49
63190;BME280;49286;44.460;26.114;2022-09-09T08:13:53;100600.63;;;24.20;57.34
63190;BME280;49286;44.460;26.114;2022-09-09T08:16:21;100491.75;;;23.67;55.92
63190;BME280;49286;44.460;26.114;2022-09-09T08:18:48;100553.19;;;24.05;56.72
63190;BME280;49286;44.460;26.114;2022-09-09T08:21:21;100595.25;;;24.53;55.78
63190;BME280;49286;44.460;26.114;2022-09-09T08:23:47;100469.81;;;23.93;50.68
63190;BME280;49286;44.460;26.114;2022-09-09T08:26:22;100589.25;;;24.66;56.54
63190;BME280;49286;44.460;26.114;2022-09-09T08:28:50;100454.91;;;23.88;56.48
63190;BME280;49286;44.460;26.114;2022-09-09T08:33:58;100472.25;;;24.14;53.10
63190;BME280;49286;44.460;26.114;2022-09-09T08:36:27;100483.41;;;24.22;54.45
63190;BME280;49286;44.460;26.114;2022-09-09T08:38:54;100578.75;;;24.77;51.13
63190;BME280;49286;44.460;26.114;2022-09-09T08:44:04;100453.84;;;24.23;50.01
63190;BME280;49286;44.460;26.114;2022-09-09T08:54:53;100539.25;;;24.63;52.71
63190;BME280;49286;44.460;26.114;2022-09-09T08:57:26;100472.97;;;24.33;52.43
63190;BME280;49286;44.460;26.114;2022-09-09T08:59:54;100519.00;;;24.89;52.31
63190;BME280;49286;44.460;26.114;2022-09-09T09:02:38;100546.25;;;25.13;52.29
63190;BME280;49286;44.460;26.114;2022-09-09T09:05:33;100552.34;;;25.01;52.34
63190;BME280;49286;44.460;26.114;2022-09-09T09:08:26;100552.00;;;24.75;52.63
63190;BME280;49286;44.460;26.114;2022-09-09T09:10:57;100530.59;;;25.05;51.08
63190;BME280;49286;44.460;26.114;2022-09-09T09:16:29;100530.63;;;25.36;50.77
63190;BME280;49286;44.460;26.114;2022-09-09T09:18:58;100540.47;;;25.80;49.85
63190;BME280;49286;44.460;26.114;2022-09-09T09:21:45;100540.25;;;25.54;50.89
63190;BME280;49286;44.460;26.114;2022-09-09T09:24:20;100539.50;;;25.52;49.46
63190;BME280;49286;44.460;26.114;2022-09-09T09:26:47;100534.31;;;25.78;47.61
63190;BME280;49286;44.460;26.114;2022-09-09T09:29:18;100446.28;;;25.38;47.57
63190;BME280;49286;44.460;26.114;2022-09-09T09:31:52;100538.31;;;26.15;47.99
63190;BME280;49286;44.460;26.114;2022-09-09T09:34:20;100418.28;;;25.12;49.54
63190;BME280;49286;44.460;26.114;2022-09-09T09:39:31;100544.25;;;25.92;46.79
63190;BME280;49286;44.460;26.114;2022-09-09T09:42:13;100408.00;;;25.35;46.03
63190;BME280;49286;44.460;26.114;2022-09-09T09:44:40;100535.16;;;26.08;48.21
63190;BME280;49286;44.460;26.114;2022-09-09T09:47:11;100533.09;;;25.69;49.56
63190;BME280;49286;44.460;26.114;2022-09-09T09:49:38;100423.06;;;25.66;47.65
63190;BME280;49286;44.460;26.114;2022-09-09T09:52:06;100500.66;;;26.15;47.19
63190;BME280;49286;44.460;26.114;2022-09-09T09:54:41;100528.25;;;26.74;46.42
63190;BME280;49286;44.460;26.114;2022-09-09T09:57:17;100397.06;;;26.37;44.79
63190;BME280;49286;44.460;26.114;2022-09-09T09:59:43;100461.97;;;26.45;44.09
63190;BME280;49286;44.460;26.114;2022-09-09T10:04:46;100532.84;;;26.17;48.65
63190;BME280;49286;44.460;26.114;2022-09-09T10:07:21;100533.81;;;26.16;48.68
63190;BME280;49286;44.460;26.114;2022-09-09T10:09:53;100389.47;;;25.30;48.41
63190;BME280;49286;44.460;26.114;2022-09-09T10:15:34;100523.78;;;26.61;47.00
63190;BME280;49286;44.460;26.114;2022-09-09T10:18:18;100503.56;;;26.68;46.12
63190;BME280;49286;44.460;26.114;2022-09-09T10:26:49;100540.34;;;26.82;46.51
63190;BME280;49286;44.460;26.114;2022-09-09T10:29:51;100526.84;;;26.55;47.78
63190;BME280;49286;44.460;26.114;2022-09-09T10:32:41;100530.03;;;26.47;48.13
63190;BME280;49286;44.460;26.114;2022-09-09T10:35:40;100533.38;;;26.65;47.59
63190;BME280;49286;44.460;26.114;2022-09-09T10:38:36;100529.38;;;26.85;46.17
63190;BME280;49286;44.460;26.114;2022-09-09T10:41:19;100523.34;;;26.81;45.66
63190;BME280;49286;44.460;26.114;2022-09-09T10:47:01;100392.00;;;26.45;45.96
63190;BME280;49286;44.460;26.114;2022-09-09T10:55:22;100488.34;;;26.94;46.07
63190;BME280;49286;44.460;26.114;2022-09-09T10:57:52;100500.91;;;27.61;43.86
63190;BME280;49286;44.460;26.114;2022-09-09T11:00:24;100487.00;;;27.67;43.81
63190;BME280;49286;44.460;26.114;2022-09-09T11:02:57;100357.56;;;26.77;44.72
63190;BME280;49286;44.460;26.114;2022-09-09T11:08:10;100411.59;;;27.14;42.85
63190;BME280;49286;44.460;26.114;2022-09-09T11:10:41;100495.94;;;27.54;43.89
63190;BME280;49286;44.460;26.114;2022-09-09T11:13:22;100374.63;;;26.90;42.96
63190;BME280;49286;44.460;26.114;2022-09-09T11:16:00;100489.16;;;27.62;43.57
63190;BME280;49286;44.460;26.114;2022-09-09T11:18:31;100470.81;;;27.01;46.65
63190;BME280;49286;44.460;26.114;2022-09-09T11:21:02;100470.19;;;27.10;46.39
63190;BME280;49286;44.460;26.114;2022-09-09T11:23:49;100491.53;;;27.13;46.51
63190;BME280;49286;44.460;26.114;2022-09-09T11:26:28;100372.22;;;26.99;42.38
63190;BME280;49286;44.460;26.114;2022-09-09T11:44:39;100381.28;;;27.10;43.79
63190;BME280;49286;44.460;26.114;2022-09-09T11:47:23;100378.34;;;27.28;43.77
63190;BME280;49286;44.460;26.114;2022-09-09T11:49:51;100358.66;;;27.13;44.31
63190;BME280;49286;44.460;26.114;2022-09-09T11:52:23;100338.00;;;26.88;44.19
63190;BME280;49286;44.460;26.114;2022-09-09T11:54:50;100462.63;;;27.68;43.30
63190;BME280;49286;44.460;26.114;2022-09-09T11:57:32;100362.34;;;27.25;43.45
63190;BME280;49286;44.460;26.114;2022-09-09T11:59:58;100352.78;;;27.33;42.81
63190;BME280;49286;44.460;26.114;2022-09-09T12:02:27;100352.09;;;27.30;43.89
63190;BME280;49286;44.460;26.114;2022-09-09T12:05:05;100394.50;;;27.53;43.86
63190;BME280;49286;44.460;26.114;2022-09-09T12:07:42;100438.78;;;27.75;45.20
63190;BME280;49286;44.460;26.114;2022-09-09T12:10:32;100453.72;;;28.17;44.12
63190;BME280;49286;44.460;26.114;2022-09-09T12:13:20;100452.13;;;28.15;41.87
63190;BME280;49286;44.460;26.114;2022-09-09T12:15:56;100439.75;;;27.48;45.22
63190;BME280;49286;44.460;26.114;2022-09-09T12:18:32;100329.56;;;26.80;45.53
63190;BME280;49286;44.460;26.114;2022-09-09T12:36:55;100416.25;;;27.50;44.97
63190;BME280;49286;44.460;26.114;2022-09-09T12:41:53;100416.13;;;27.90;42.82
63190;BME280;49286;44.460;26.114;2022-09-09T12:44:24;100328.47;;;27.46;42.00
63190;BME280;49286;44.460;26.114;2022-09-09T12:46:50;100312.25;;;27.22;43.12
63190;BME280;49286;44.460;26.114;2022-09-09T12:49:37;100377.09;;;27.57;43.01
63190;BME280;49286;44.460;26.114;2022-09-09T12:52:16;100415.06;;;27.54;43.66
63190;BME280;49286;44.460;26.114;2022-09-09T12:54:45;100289.28;;;26.91;42.95
63190;BME280;49286;44.460;26.114;2022-09-09T12:57:16;100396.28;;;27.91;42.26
63190;BME280;49286;44.460;26.114;2022-09-09T12:59:43;100407.41;;;27.87;43.18
63190;BME280;49286;44.460;26.114;2022-09-09T13:02:22;100285.00;;;26.88;43.78
63190;BME280;49286;44.460;26.114;2022-09-09T13:04:48;100381.81;;;27.92;41.97
63190;BME280;49286;44.460;26.114;2022-09-09T13:07:21;100405.78;;;27.84;42.90
63190;BME280;49286;44.460;26.114;2022-09-09T13:09:48;100285.72;;;27.03;43.06
63190;BME280;49286;44.460;26.114;2022-09-09T13:12:17;100319.41;;;27.60;42.24
63190;BME280;49286;44.460;26.114;2022-09-09T13:14:46;100374.56;;;28.06;41.86
63190;BME280;49286;44.460;26.114;2022-09-09T13:17:22;100371.72;;;28.07;42.21
63190;BME280;49286;44.460;26.114;2022-09-09T13:19:49;100268.06;;;26.99;43.90
63190;BME280;49286;44.460;26.114;2022-09-09T13:27:51;100381.97;;;27.65;45.21
63190;BME280;49286;44.460;26.114;2022-09-09T13:30:33;100368.50;;;27.52;45.00
63190;BME280;49286;44.460;26.114;2022-09-09T13:36:02;100379.94;;;27.30;46.62
63190;BME280;49286;44.460;26.114;2022-09-09T13:41:22;100256.00;;;26.66;45.48
63190;BME280;49286;44.460;26.114;2022-09-09T13:43:49;100377.56;;;27.26;46.28
63190;BME280;49286;44.460;26.114;2022-09-09T13:46:27;100365.25;;;27.34;45.73
63190;BME280;49286;44.460;26.114;2022-09-09T13:48:59;100357.63;;;27.28;45.84
63190;BME280;49286;44.460;26.114;2022-09-09T13:51:33;100379.06;;;27.04;45.98
63190;BME280;49286;44.460;26.114;2022-09-09T13:54:00;100350.44;;;26.63;47.34
63190;BME280;49286;44.460;26.114;2022-09-09T13:56:26;100373.91;;;27.40;45.57
63190;BME280;49286;44.460;26.114;2022-09-09T13:58:53;100270.81;;;26.46;47.06
63190;BME280;49286;44.460;26.114;2022-09-09T14:01:19;100264.84;;;26.56;46.73
63190;BME280;49286;44.460;26.114;2022-09-09T14:03:44;100342.19;;;27.17;47.12
63190;BME280;49286;44.460;26.114;2022-09-09T14:06:10;100347.53;;;26.66;48.24
63190;BME280;49286;44.460;26.114;2022-09-09T14:08:36;100385.78;;;26.71;50.55
63190;BME280;49286;44.460;26.114;2022-09-09T14:11:03;100379.78;;;26.93;49.87
63190;BME280;49286;44.460;26.114;2022-09-09T14:13:29;100375.16;;;26.95;50.27
63190;BME280;49286;44.460;26.114;2022-09-09T14:15:55;100375.28;;;27.07;51.11
63190;BME280;49286;44.460;26.114;2022-09-09T14:18:20;100242.97;;;25.80;51.13
63190;BME280;49286;44.460;26.114;2022-09-09T14:20:47;100219.94;;;25.35;52.96
63190;BME280;49286;44.460;26.114;2022-09-09T14:23:13;100357.97;;;26.58;52.77
63190;BME280;49286;44.460;26.114;2022-09-09T14:25:48;100348.69;;;26.22;53.29
63190;BME280;49286;44.460;26.114;2022-09-09T14:28:14;100247.50;;;25.65;54.45
63190;BME280;49286;44.460;26.114;2022-09-09T14:30:41;100346.34;;;26.43;53.96
63190;BME280;49286;44.460;26.114;2022-09-09T14:33:09;100285.25;;;25.64;54.70
63190;BME280;49286;44.460;26.114;2022-09-09T14:35:35;100226.31;;;25.61;54.64
63190;BME280;49286;44.460;26.114;2022-09-09T14:38:02;100352.56;;;26.58;53.83
63190;BME280;49286;44.460;26.114;2022-09-09T14:40:27;100239.66;;;25.62;54.65
63190;BME280;49286;44.460;26.114;2022-09-09T14:42:53;100338.78;;;26.23;54.42
63190;BME280;49286;44.460;26.114;2022-09-09T14:45:19;100350.53;;;26.35;54.31
63190;BME280;49286;44.460;26.114;2022-09-09T14:47:46;100352.38;;;26.07;54.84
63190;BME280;49286;44.460;26.114;2022-09-09T14:50:12;100328.69;;;25.99;54.83
63190;BME280;49286;44.460;26.114;2022-09-09T14:52:38;100206.53;;;25.20;55.63
63190;BME280;49286;44.460;26.114;2022-09-09T14:55:04;100356.84;;;26.21;55.12
63190;BME280;49286;44.460;26.114;2022-09-09T14:57:30;100218.50;;;25.43;54.42
63190;BME280;49286;44.460;26.114;2022-09-09T14:59:56;100300.47;;;25.92;54.46
63190;BME280;49286;44.460;26.114;2022-09-09T15:02:22;100341.22;;;26.13;54.72
63190;BME280;49286;44.460;26.114;2022-09-09T15:04:47;100274.75;;;25.74;55.10
63190;BME280;49286;44.460;26.114;2022-09-09T15:07:15;100351.28;;;26.09;54.96
63190;BME280;49286;44.460;26.114;2022-09-09T15:09:42;100359.91;;;26.15;55.17